sensor_id;sensor_type;location;lat;lon;timestamp;P1;durP1;ratioP1;P2;durP2;ratioP2
7330;SDS011;3706;49.198;7.064;2024-02-28T00:02:20;30.77;;;16.43;;
7330;SDS011;3706;49.198;7.064;2024-02-28T00:04:49;27.97;;;16.13;;
7330;SDS011;3706;49.198;7.064;2024-02-28T00:07:16;27.83;;;16.13;;
7330;SDS011;3706;49.198;7.064;2024-02-28T00:09:43;31.53;;;16.37;;
7330;SDS011;3706;49.198;7.064;2024-02-28T00:12:10;27.33;;;15.90;;
7330;SDS011;3706;49.198;7.064;2024-02-28T00:14:37;31.60;;;16.67;;
7330;SDS011;3706;49.198;7.064;2024-02-28T00:17:05;30.87;;;15.50;;
7330;SDS011;3706;49.198;7.064;2024-02-28T00:19:32;22.37;;;12.97;;
7330;SDS011;3706;49.198;7.064;2024-02-28T00:22:01;26.37;;;17.33;;
7330;SDS011;3706;49.198;7.064;2024-02-28T00:24:27;26.73;;;16.30;;
7330;SDS011;3706;49.198;7.064;2024-02-28T00:26:56;22.77;;;14.47;;
7330;SDS011;3706;49.198;7.064;2024-02-28T00:29:22;26.23;;;13.10;;
7330;SDS011;3706;49.198;7.064;2024-02-28T00:31:49;29.27;;;16.03;;
7330;SDS011;3706;49.198;7.064;2024-02-28T00:34:17;30.37;;;16.20;;
7330;SDS011;3706;49.198;7.064;2024-02-28T00:36:43;31.47;;;17.20;;
7330;SDS011;3706;49.198;7.064;2024-02-28T00:39:12;28.40;;;15.97;;
7330;SDS011;3706;49.198;7.064;2024-02-28T00:41:39;26.13;;;16.13;;
7330;SDS011;3706;49.198;7.064;2024-02-28T00:44:06;28.57;;;16.70;;
7330;SDS011;3706;49.198;7.064;2024-02-28T00:46:33;29.80;;;16.40;;
7330;SDS011;3706;49.198;7.064;2024-02-28T00:49:00;26.70;;;15.77;;
7330;SDS011;3706;49.198;7.064;2024-02-28T00:51:27;21.40;;;13.07;;
7330;SDS011;3706;49.198;7.064;2024-02-28T00:53:54;25.70;;;14.40;;
7330;SDS011;3706;49.198;7.064;2024-02-28T00:56:23;30.63;;;16.37;;
7330;SDS011;3706;49.198;7.064;2024-02-28T00:58:52;28.10;;;14.50;;
7330;SDS011;3706;49.198;7.064;2024-02-28T01:01:19;38.07;;;18.20;;
7330;SDS011;3706;49.198;7.064;2024-02-28T01:03:46;33.03;;;18.47;;
7330;SDS011;3706;49.198;7.064;2024-02-28T01:06:13;28.03;;;16.13;;
7330;SDS011;3706;49.198;7.064;2024-02-28T01:08:40;33.77;;;18.23;;
7330;SDS011;3706;49.198;7.064;2024-02-28T01:11:07;28.70;;;15.90;;
7330;SDS011;3706;49.198;7.064;2024-02-28T01:13:36;29.00;;;16.47;;
7330;SDS011;3706;49.198;7.064;2024-02-28T01:16:03;25.00;;;14.37;;
7330;SDS011;3706;49.198;7.064;2024-02-28T01:18:30;31.80;;;17.43;;
7330;SDS011;3706;49.198;7.064;2024-02-28T01:20:57;28.20;;;16.17;;
7330;SDS011;3706;49.198;7.064;2024-02-28T01:23:24;27.47;;;14.90;;
7330;SDS011;3706;49.198;7.064;2024-02-28T01:25:51;27.47;;;15.90;;
7330;SDS011;3706;49.198;7.064;2024-02-28T01:28:18;33.00;;;16.63;;
7330;SDS011;3706;49.198;7.064;2024-02-28T01:30:48;36.60;;;17.50;;
7330;SDS011;3706;49.198;7.064;2024-02-28T01:33:15;30.13;;;17.27;;
7330;SDS011;3706;49.198;7.064;2024-02-28T01:35:42;25.97;;;16.40;;
7330;SDS011;3706;49.198;7.064;2024-02-28T01:38:09;35.83;;;17.57;;
7330;SDS011;3706;49.198;7.064;2024-02-28T01:40:36;32.37;;;16.77;;
7330;SDS011;3706;49.198;7.064;2024-02-28T01:43:03;33.47;;;17.27;;
7330;SDS011;3706;49.198;7.064;2024-02-28T01:45:33;27.50;;;15.70;;
7330;SDS011;3706;49.198;7.064;2024-02-28T01:48:01;28.20;;;15.07;;
7330;SDS011;3706;49.198;7.064;2024-02-28T01:50:30;30.43;;;18.03;;
7330;SDS011;3706;49.198;7.064;2024-02-28T01:52:57;32.43;;;15.53;;
7330;SDS011;3706;49.198;7.064;2024-02-28T01:55:24;32.50;;;17.17;;
7330;SDS011;3706;49.198;7.064;2024-02-28T01:57:51;38.03;;;18.73;;
7330;SDS011;3706;49.198;7.064;2024-02-28T02:00:19;31.90;;;16.43;;
7330;SDS011;3706;49.198;7.064;2024-02-28T02:02:47;34.90;;;18.23;;
7330;SDS011;3706;49.198;7.064;2024-02-28T02:05:16;29.53;;;15.67;;
7330;SDS011;3706;49.198;7.064;2024-02-28T02:07:45;32.53;;;18.13;;
7330;SDS011;3706;49.198;7.064;2024-02-28T02:10:16;33.30;;;17.10;;
7330;SDS011;3706;49.198;7.064;2024-02-28T02:12:43;28.93;;;16.53;;
7330;SDS011;3706;49.198;7.064;2024-02-28T02:15:10;25.70;;;15.07;;
7330;SDS011;3706;49.198;7.064;2024-02-28T02:17:37;30.13;;;15.40;;
7330;SDS011;3706;49.198;7.064;2024-02-28T02:20:05;25.90;;;15.47;;
7330;SDS011;3706;49.198;7.064;2024-02-28T02:22:37;27.43;;;14.07;;
7330;SDS011;3706;49.198;7.064;2024-02-28T02:25:04;29.03;;;15.40;;
7330;SDS011;3706;49.198;7.064;2024-02-28T02:27:32;37.17;;;17.63;;
7330;SDS011;3706;49.198;7.064;2024-02-28T02:29:59;31.40;;;15.00;;
7330;SDS011;3706;49.198;7.064;2024-02-28T02:32:26;30.83;;;15.50;;
7330;SDS011;3706;49.198;7.064;2024-02-28T02:34:53;34.00;;;16.10;;
7330;SDS011;3706;49.198;7.064;2024-02-28T02:37:20;29.70;;;15.90;;
7330;SDS011;3706;49.198;7.064;2024-02-28T02:39:49;29.17;;;17.10;;
7330;SDS011;3706;49.198;7.064;2024-02-28T02:42:16;33.03;;;16.57;;
7330;SDS011;3706;49.198;7.064;2024-02-28T02:44:43;33.50;;;15.67;;
7330;SDS011;3706;49.198;7.064;2024-02-28T02:47:10;31.83;;;17.90;;
7330;SDS011;3706;49.198;7.064;2024-02-28T02:49:37;29.83;;;15.97;;
7330;SDS011;3706;49.198;7.064;2024-02-28T02:52:04;31.40;;;15.93;;
7330;SDS011;3706;49.198;7.064;2024-02-28T02:54:31;29.73;;;16.27;;
7330;SDS011;3706;49.198;7.064;2024-02-28T02:56:59;29.27;;;15.07;;
7330;SDS011;3706;49.198;7.064;2024-02-28T02:59:26;35.03;;;17.43;;
7330;SDS011;3706;49.198;7.064;2024-02-28T03:01:53;26.87;;;16.00;;
7330;SDS011;3706;49.198;7.064;2024-02-28T03:04:20;35.63;;;17.50;;
7330;SDS011;3706;49.198;7.064;2024-02-28T03:06:47;31.07;;;16.83;;
7330;SDS011;3706;49.198;7.064;2024-02-28T03:09:14;29.33;;;16.93;;
7330;SDS011;3706;49.198;7.064;2024-02-28T03:11:41;32.07;;;16.17;;
7330;SDS011;3706;49.198;7.064;2024-02-28T03:14:09;28.90;;;15.83;;
7330;SDS011;3706;49.198;7.064;2024-02-28T03:16:40;31.07;;;16.90;;
7330;SDS011;3706;49.198;7.064;2024-02-28T03:19:07;31.50;;;16.20;;
7330;SDS011;3706;49.198;7.064;2024-02-28T03:21:34;29.33;;;15.90;;
7330;SDS011;3706;49.198;7.064;2024-02-28T03:24:01;29.90;;;16.13;;
7330;SDS011;3706;49.198;7.064;2024-02-28T03:26:28;33.20;;;17.83;;
7330;SDS011;3706;49.198;7.064;2024-02-28T03:28:55;35.33;;;18.73;;
7330;SDS011;3706;49.198;7.064;2024-02-28T03:31:24;43.27;;;18.37;;
7330;SDS011;3706;49.198;7.064;2024-02-28T03:33:51;28.77;;;14.87;;
7330;SDS011;3706;49.198;7.064;2024-02-28T03:36:17;34.47;;;18.07;;
7330;SDS011;3706;49.198;7.064;2024-02-28T03:38:44;32.17;;;17.10;;
7330;SDS011;3706;49.198;7.064;2024-02-28T03:41:11;31.50;;;15.77;;
7330;SDS011;3706;49.198;7.064;2024-02-28T03:43:38;31.57;;;16.57;;
7330;SDS011;3706;49.198;7.064;2024-02-28T03:46:05;31.60;;;16.83;;
7330;SDS011;3706;49.198;7.064;2024-02-28T03:48:33;40.33;;;18.73;;
7330;SDS011;3706;49.198;7.064;2024-02-28T03:51:00;33.10;;;16.80;;
7330;SDS011;3706;49.198;7.064;2024-02-28T03:53:27;37.43;;;17.10;;
7330;SDS011;3706;49.198;7.064;2024-02-28T03:55:54;30.00;;;15.30;;
7330;SDS011;3706;49.198;7.064;2024-02-28T03:58:21;35.17;;;18.40;;
7330;SDS011;3706;49.198;7.064;2024-02-28T04:00:48;39.10;;;17.70;;
7330;SDS011;3706;49.198;7.064;2024-02-28T04:03:15;37.50;;;18.70;;
7330;SDS011;3706;49.198;7.064;2024-02-28T04:05:44;42.53;;;19.50;;
7330;SDS011;3706;49.198;7.064;2024-02-28T04:08:10;39.57;;;18.47;;
7330;SDS011;3706;49.198;7.064;2024-02-28T04:10:37;36.67;;;16.50;;
7330;SDS011;3706;49.198;7.064;2024-02-28T04:13:04;34.83;;;16.30;;
7330;SDS011;3706;49.198;7.064;2024-02-28T04:15:32;39.40;;;18.73;;
7330;SDS011;3706;49.198;7.064;2024-02-28T04:17:59;38.27;;;18.17;;
7330;SDS011;3706;49.198;7.064;2024-02-28T04:20:28;39.20;;;17.60;;
7330;SDS011;3706;49.198;7.064;2024-02-28T04:22:57;48.73;;;19.37;;
7330;SDS011;3706;49.198;7.064;2024-02-28T04:25:24;37.80;;;17.03;;
7330;SDS011;3706;49.198;7.064;2024-02-28T04:27:51;40.83;;;19.03;;
7330;SDS011;3706;49.198;7.064;2024-02-28T04:30:18;35.70;;;19.07;;
7330;SDS011;3706;49.198;7.064;2024-02-28T04:32:45;42.87;;;20.33;;
7330;SDS011;3706;49.198;7.064;2024-02-28T04:35:12;38.40;;;16.93;;
7330;SDS011;3706;49.198;7.064;2024-02-28T04:37:40;36.13;;;17.97;;
7330;SDS011;3706;49.198;7.064;2024-02-28T04:40:09;37.37;;;18.50;;
7330;SDS011;3706;49.198;7.064;2024-02-28T04:42:37;37.33;;;18.43;;
7330;SDS011;3706;49.198;7.064;2024-02-28T04:45:05;30.73;;;16.53;;
7330;SDS011;3706;49.198;7.064;2024-02-28T04:47:32;43.07;;;18.93;;
7330;SDS011;3706;49.198;7.064;2024-02-28T04:49:59;41.10;;;19.03;;
7330;SDS011;3706;49.198;7.064;2024-02-28T04:52:26;42.57;;;20.37;;
7330;SDS011;3706;49.198;7.064;2024-02-28T04:54:53;46.13;;;20.47;;
7330;SDS011;3706;49.198;7.064;2024-02-28T04:57:22;38.30;;;16.73;;
7330;SDS011;3706;49.198;7.064;2024-02-28T04:59:49;50.67;;;20.87;;
7330;SDS011;3706;49.198;7.064;2024-02-28T05:02:16;50.50;;;20.80;;
7330;SDS011;3706;49.198;7.064;2024-02-28T05:04:43;58.43;;;21.60;;
7330;SDS011;3706;49.198;7.064;2024-02-28T05:07:10;52.57;;;21.13;;
7330;SDS011;3706;49.198;7.064;2024-02-28T05:09:36;46.27;;;19.30;;
7330;SDS011;3706;49.198;7.064;2024-02-28T05:12:03;42.60;;;19.13;;
7330;SDS011;3706;49.198;7.064;2024-02-28T05:14:32;47.53;;;19.13;;
7330;SDS011;3706;49.198;7.064;2024-02-28T05:16:59;53.97;;;19.63;;
7330;SDS011;3706;49.198;7.064;2024-02-28T05:19:26;47.53;;;20.70;;
7330;SDS011;3706;49.198;7.064;2024-02-28T05:21:53;51.03;;;21.10;;
7330;SDS011;3706;49.198;7.064;2024-02-28T05:24:20;56.17;;;21.13;;
7330;SDS011;3706;49.198;7.064;2024-02-28T05:26:47;36.80;;;16.93;;
7330;SDS011;3706;49.198;7.064;2024-02-28T05:29:14;79.93;;;23.50;;
7330;SDS011;3706;49.198;7.064;2024-02-28T05:31:42;73.97;;;22.63;;
7330;SDS011;3706;49.198;7.064;2024-02-28T05:34:09;50.93;;;20.03;;
7330;SDS011;3706;49.198;7.064;2024-02-28T05:36:36;51.57;;;17.33;;
7330;SDS011;3706;49.198;7.064;2024-02-28T05:39:03;99.53;;;22.87;;
7330;SDS011;3706;49.198;7.064;2024-02-28T05:41:30;86.53;;;23.47;;
7330;SDS011;3706;49.198;7.064;2024-02-28T05:43:57;105.43;;;25.10;;
7330;SDS011;3706;49.198;7.064;2024-02-28T05:46:24;83.37;;;22.73;;
7330;SDS011;3706;49.198;7.064;2024-02-28T05:48:53;85.90;;;22.03;;
7330;SDS011;3706;49.198;7.064;2024-02-28T05:51:19;156.27;;;26.27;;
7330;SDS011;3706;49.198;7.064;2024-02-28T05:53:47;97.43;;;23.20;;
7330;SDS011;3706;49.198;7.064;2024-02-28T05:56:14;84.03;;;21.77;;
7330;SDS011;3706;49.198;7.064;2024-02-28T05:58:45;69.13;;;20.30;;
7330;SDS011;3706;49.198;7.064;2024-02-28T06:01:13;71.77;;;19.63;;
7330;SDS011;3706;49.198;7.064;2024-02-28T06:03:42;65.43;;;18.27;;
7330;SDS011;3706;49.198;7.064;2024-02-28T06:06:10;72.20;;;18.97;;
7330;SDS011;3706;49.198;7.064;2024-02-28T06:08:38;62.33;;;18.47;;
7330;SDS011;3706;49.198;7.064;2024-02-28T06:11:06;61.47;;;17.70;;
7330;SDS011;3706;49.198;7.064;2024-02-28T06:13:33;89.27;;;20.17;;
7330;SDS011;3706;49.198;7.064;2024-02-28T06:16:00;84.77;;;19.83;;
7330;SDS011;3706;49.198;7.064;2024-02-28T06:18:27;78.87;;;19.30;;
7330;SDS011;3706;49.198;7.064;2024-02-28T06:20:58;86.50;;;19.73;;
7330;SDS011;3706;49.198;7.064;2024-02-28T06:23:27;101.20;;;20.70;;
7330;SDS011;3706;49.198;7.064;2024-02-28T06:25:54;71.87;;;20.60;;
7330;SDS011;3706;49.198;7.064;2024-02-28T06:28:21;68.70;;;20.07;;
7330;SDS011;3706;49.198;7.064;2024-02-28T06:30:48;58.87;;;16.93;;
7330;SDS011;3706;49.198;7.064;2024-02-28T06:33:15;54.63;;;15.57;;
7330;SDS011;3706;49.198;7.064;2024-02-28T06:35:42;63.40;;;18.77;;
7330;SDS011;3706;49.198;7.064;2024-02-28T06:38:09;95.20;;;20.30;;
7330;SDS011;3706;49.198;7.064;2024-02-28T06:40:37;77.27;;;19.27;;
7330;SDS011;3706;49.198;7.064;2024-02-28T06:43:05;72.53;;;19.47;;
7330;SDS011;3706;49.198;7.064;2024-02-28T06:45:32;61.27;;;18.93;;
7330;SDS011;3706;49.198;7.064;2024-02-28T06:47:59;59.67;;;18.37;;
7330;SDS011;3706;49.198;7.064;2024-02-28T06:50:26;81.33;;;18.77;;
7330;SDS011;3706;49.198;7.064;2024-02-28T06:52:53;192.47;;;25.13;;
7330;SDS011;3706;49.198;7.064;2024-02-28T06:55:20;106.93;;;22.23;;
7330;SDS011;3706;49.198;7.064;2024-02-28T06:57:48;61.90;;;18.73;;
7330;SDS011;3706;49.198;7.064;2024-02-28T07:00:16;86.57;;;20.03;;
7330;SDS011;3706;49.198;7.064;2024-02-28T07:02:56;45.40;;;16.60;;
7330;SDS011;3706;49.198;7.064;2024-02-28T07:05:23;160.47;;;24.80;;
7330;SDS011;3706;49.198;7.064;2024-02-28T07:07:50;86.10;;;20.37;;
7330;SDS011;3706;49.198;7.064;2024-02-28T07:10:17;125.87;;;22.70;;
7330;SDS011;3706;49.198;7.064;2024-02-28T07:12:45;183.87;;;26.33;;
7330;SDS011;3706;49.198;7.064;2024-02-28T07:15:13;111.10;;;20.07;;
7330;SDS011;3706;49.198;7.064;2024-02-28T07:17:44;80.07;;;18.90;;
7330;SDS011;3706;49.198;7.064;2024-02-28T07:20:14;99.20;;;21.03;;
7330;SDS011;3706;49.198;7.064;2024-02-28T07:22:42;110.00;;;20.73;;
7330;SDS011;3706;49.198;7.064;2024-02-28T07:25:09;134.70;;;23.97;;
7330;SDS011;3706;49.198;7.064;2024-02-28T07:27:36;140.13;;;24.70;;
7330;SDS011;3706;49.198;7.064;2024-02-28T07:30:04;149.07;;;24.73;;
7330;SDS011;3706;49.198;7.064;2024-02-28T07:32:33;110.27;;;21.03;;
7330;SDS011;3706;49.198;7.064;2024-02-28T07:35:01;197.17;;;26.43;;
7330;SDS011;3706;49.198;7.064;2024-02-28T07:37:29;82.57;;;20.07;;
7330;SDS011;3706;49.198;7.064;2024-02-28T07:39:57;51.97;;;18.33;;
7330;SDS011;3706;49.198;7.064;2024-02-28T07:42:25;84.57;;;20.57;;
7330;SDS011;3706;49.198;7.064;2024-02-28T07:44:52;267.23;;;33.13;;
7330;SDS011;3706;49.198;7.064;2024-02-28T07:47:22;266.77;;;30.30;;
7330;SDS011;3706;49.198;7.064;2024-02-28T07:49:51;92.47;;;24.10;;
7330;SDS011;3706;49.198;7.064;2024-02-28T07:52:18;77.57;;;21.37;;
7330;SDS011;3706;49.198;7.064;2024-02-28T07:54:45;166.57;;;26.60;;
7330;SDS011;3706;49.198;7.064;2024-02-28T07:57:14;144.10;;;26.07;;
7330;SDS011;3706;49.198;7.064;2024-02-28T07:59:41;266.83;;;30.40;;
7330;SDS011;3706;49.198;7.064;2024-02-28T08:02:09;219.70;;;30.43;;
7330;SDS011;3706;49.198;7.064;2024-02-28T08:04:37;161.53;;;25.80;;
7330;SDS011;3706;49.198;7.064;2024-02-28T08:07:06;186.47;;;30.50;;
7330;SDS011;3706;49.198;7.064;2024-02-28T08:09:33;109.50;;;28.17;;
7330;SDS011;3706;49.198;7.064;2024-02-28T08:12:00;88.67;;;22.27;;
7330;SDS011;3706;49.198;7.064;2024-02-28T08:14:27;69.83;;;22.40;;
7330;SDS011;3706;49.198;7.064;2024-02-28T08:16:54;78.30;;;23.53;;
7330;SDS011;3706;49.198;7.064;2024-02-28T08:19:21;84.90;;;26.80;;
7330;SDS011;3706;49.198;7.064;2024-02-28T08:21:48;130.73;;;25.43;;
7330;SDS011;3706;49.198;7.064;2024-02-28T08:24:17;118.93;;;27.37;;
7330;SDS011;3706;49.198;7.064;2024-02-28T08:26:44;60.77;;;21.83;;
7330;SDS011;3706;49.198;7.064;2024-02-28T08:29:11;80.83;;;26.23;;
7330;SDS011;3706;49.198;7.064;2024-02-28T08:31:41;125.97;;;27.80;;
7330;SDS011;3706;49.198;7.064;2024-02-28T08:34:09;86.40;;;25.60;;
7330;SDS011;3706;49.198;7.064;2024-02-28T08:36:36;121.20;;;27.43;;
7330;SDS011;3706;49.198;7.064;2024-02-28T08:39:03;58.93;;;23.30;;
7330;SDS011;3706;49.198;7.064;2024-02-28T08:41:33;135.57;;;29.77;;
7330;SDS011;3706;49.198;7.064;2024-02-28T08:44:08;121.03;;;28.23;;
7330;SDS011;3706;49.198;7.064;2024-02-28T08:47:07;91.63;;;25.00;;
7330;SDS011;3706;49.198;7.064;2024-02-28T08:49:40;88.53;;;27.67;;
7330;SDS011;3706;49.198;7.064;2024-02-28T08:52:10;56.53;;;21.30;;
7330;SDS011;3706;49.198;7.064;2024-02-28T08:54:36;69.53;;;27.73;;
7330;SDS011;3706;49.198;7.064;2024-02-28T08:57:06;53.67;;;23.37;;
7330;SDS011;3706;49.198;7.064;2024-02-28T08:59:33;39.50;;;20.57;;
7330;SDS011;3706;49.198;7.064;2024-02-28T09:02:00;55.70;;;24.90;;
7330;SDS011;3706;49.198;7.064;2024-02-28T09:04:27;53.60;;;23.93;;
7330;SDS011;3706;49.198;7.064;2024-02-28T09:06:54;45.77;;;22.50;;
7330;SDS011;3706;49.198;7.064;2024-02-28T09:09:21;40.67;;;19.57;;
7330;SDS011;3706;49.198;7.064;2024-02-28T09:11:48;39.33;;;20.07;;
7330;SDS011;3706;49.198;7.064;2024-02-28T09:14:16;45.40;;;22.13;;
7330;SDS011;3706;49.198;7.064;2024-02-28T09:16:43;43.63;;;21.60;;
7330;SDS011;3706;49.198;7.064;2024-02-28T09:19:36;32.97;;;19.13;;
7330;SDS011;3706;49.198;7.064;2024-02-28T09:22:19;33.00;;;18.43;;
7330;SDS011;3706;49.198;7.064;2024-02-28T09:25:32;43.30;;;21.67;;
7330;SDS011;3706;49.198;7.064;2024-02-28T09:31:33;33.57;;;18.57;;
7330;SDS011;3706;49.198;7.064;2024-02-28T09:34:03;29.87;;;17.20;;
7330;SDS011;3706;49.198;7.064;2024-02-28T09:36:32;33.97;;;18.83;;
7330;SDS011;3706;49.198;7.064;2024-02-28T09:39:00;28.70;;;17.13;;
7330;SDS011;3706;49.198;7.064;2024-02-28T09:41:27;33.47;;;18.87;;
7330;SDS011;3706;49.198;7.064;2024-02-28T09:43:54;35.83;;;21.00;;
7330;SDS011;3706;49.198;7.064;2024-02-28T09:46:21;26.20;;;15.60;;
7330;SDS011;3706;49.198;7.064;2024-02-28T09:48:53;26.93;;;16.17;;
7330;SDS011;3706;49.198;7.064;2024-02-28T09:51:22;28.73;;;16.87;;
7330;SDS011;3706;49.198;7.064;2024-02-28T09:53:49;31.70;;;19.83;;
7330;SDS011;3706;49.198;7.064;2024-02-28T09:56:16;32.17;;;18.30;;
7330;SDS011;3706;49.198;7.064;2024-02-28T09:58:44;29.87;;;17.43;;
7330;SDS011;3706;49.198;7.064;2024-02-28T10:01:12;30.30;;;18.37;;
7330;SDS011;3706;49.198;7.064;2024-02-28T10:03:43;25.30;;;15.57;;
7330;SDS011;3706;49.198;7.064;2024-02-28T10:09:26;33.67;;;19.37;;
7330;SDS011;3706;49.198;7.064;2024-02-28T10:11:53;25.07;;;14.83;;
7330;SDS011;3706;49.198;7.064;2024-02-28T10:14:20;26.43;;;16.47;;
7330;SDS011;3706;49.198;7.064;2024-02-28T10:16:49;27.83;;;17.27;;
7330;SDS011;3706;49.198;7.064;2024-02-28T10:19:20;31.47;;;18.10;;
7330;SDS011;3706;49.198;7.064;2024-02-28T10:21:47;29.37;;;15.87;;
7330;SDS011;3706;49.198;7.064;2024-02-28T10:24:14;32.03;;;18.37;;
7330;SDS011;3706;49.198;7.064;2024-02-28T10:26:45;26.53;;;16.63;;
7330;SDS011;3706;49.198;7.064;2024-02-28T10:29:20;27.53;;;16.93;;
7330;SDS011;3706;49.198;7.064;2024-02-28T10:31:48;26.20;;;17.63;;
7330;SDS011;3706;49.198;7.064;2024-02-28T10:34:18;25.43;;;15.70;;
7330;SDS011;3706;49.198;7.064;2024-02-28T10:36:45;28.83;;;16.80;;
7330;SDS011;3706;49.198;7.064;2024-02-28T10:39:13;28.03;;;18.33;;
7330;SDS011;3706;49.198;7.064;2024-02-28T10:41:41;31.70;;;18.07;;
7330;SDS011;3706;49.198;7.064;2024-02-28T10:44:09;24.80;;;14.87;;
7330;SDS011;3706;49.198;7.064;2024-02-28T10:46:39;30.37;;;18.00;;
7330;SDS011;3706;49.198;7.064;2024-02-28T10:49:08;26.90;;;16.67;;
7330;SDS011;3706;49.198;7.064;2024-02-28T10:51:35;28.60;;;17.07;;
7330;SDS011;3706;49.198;7.064;2024-02-28T10:54:06;28.63;;;17.73;;
7330;SDS011;3706;49.198;7.064;2024-02-28T10:56:36;25.63;;;16.10;;
7330;SDS011;3706;49.198;7.064;2024-02-28T10:59:03;23.97;;;15.53;;
7330;SDS011;3706;49.198;7.064;2024-02-28T11:01:34;22.93;;;14.87;;
7330;SDS011;3706;49.198;7.064;2024-02-28T11:04:03;25.30;;;16.50;;
7330;SDS011;3706;49.198;7.064;2024-02-28T11:06:30;23.53;;;15.63;;
7330;SDS011;3706;49.198;7.064;2024-02-28T11:08:58;24.37;;;15.97;;
7330;SDS011;3706;49.198;7.064;2024-02-28T11:11:29;25.97;;;16.60;;
7330;SDS011;3706;49.198;7.064;2024-02-28T11:13:58;27.33;;;17.70;;
7330;SDS011;3706;49.198;7.064;2024-02-28T11:16:27;21.30;;;14.40;;
7330;SDS011;3706;49.198;7.064;2024-02-28T11:27:30;23.13;;;15.93;;
7330;SDS011;3706;49.198;7.064;2024-02-28T11:29:57;24.53;;;16.40;;
7330;SDS011;3706;49.198;7.064;2024-02-28T11:32:25;24.23;;;16.43;;
7330;SDS011;3706;49.198;7.064;2024-02-28T11:34:52;23.47;;;15.47;;
7330;SDS011;3706;49.198;7.064;2024-02-28T11:37:20;22.33;;;14.97;;
7330;SDS011;3706;49.198;7.064;2024-02-28T11:39:47;26.30;;;18.43;;
7330;SDS011;3706;49.198;7.064;2024-02-28T11:42:15;21.70;;;15.30;;
7330;SDS011;3706;49.198;7.064;2024-02-28T11:44:43;25.87;;;17.83;;
7330;SDS011;3706;49.198;7.064;2024-02-28T11:47:19;27.03;;;18.30;;
7330;SDS011;3706;49.198;7.064;2024-02-28T11:52:55;28.03;;;17.90;;
7330;SDS011;3706;49.198;7.064;2024-02-28T11:55:24;27.97;;;17.37;;
7330;SDS011;3706;49.198;7.064;2024-02-28T11:57:52;30.97;;;19.07;;
7330;SDS011;3706;49.198;7.064;2024-02-28T12:00:20;29.13;;;19.17;;
7330;SDS011;3706;49.198;7.064;2024-02-28T12:02:47;31.07;;;19.07;;
7330;SDS011;3706;49.198;7.064;2024-02-28T12:05:15;29.70;;;18.60;;
7330;SDS011;3706;49.198;7.064;2024-02-28T12:07:42;27.27;;;17.07;;
7330;SDS011;3706;49.198;7.064;2024-02-28T12:10:09;32.20;;;19.87;;
7330;SDS011;3706;49.198;7.064;2024-02-28T12:12:36;28.77;;;19.13;;
7330;SDS011;3706;49.198;7.064;2024-02-28T12:15:06;30.67;;;19.03;;
7330;SDS011;3706;49.198;7.064;2024-02-28T12:17:35;24.87;;;16.30;;
7330;SDS011;3706;49.198;7.064;2024-02-28T12:20:02;26.27;;;17.30;;
7330;SDS011;3706;49.198;7.064;2024-02-28T12:22:31;29.07;;;18.13;;
7330;SDS011;3706;49.198;7.064;2024-02-28T12:24:58;29.17;;;19.00;;
7330;SDS011;3706;49.198;7.064;2024-02-28T12:27:29;28.17;;;18.37;;
7330;SDS011;3706;49.198;7.064;2024-02-28T12:29:57;25.07;;;17.10;;
7330;SDS011;3706;49.198;7.064;2024-02-28T12:32:25;29.50;;;19.27;;
7330;SDS011;3706;49.198;7.064;2024-02-28T12:34:54;25.90;;;18.43;;
7330;SDS011;3706;49.198;7.064;2024-02-28T12:37:21;26.00;;;18.33;;
7330;SDS011;3706;49.198;7.064;2024-02-28T12:39:48;28.83;;;18.63;;
7330;SDS011;3706;49.198;7.064;2024-02-28T12:42:16;27.53;;;18.47;;
7330;SDS011;3706;49.198;7.064;2024-02-28T12:44:43;27.63;;;18.23;;
7330;SDS011;3706;49.198;7.064;2024-02-28T12:47:14;24.40;;;18.53;;
7330;SDS011;3706;49.198;7.064;2024-02-28T12:49:41;22.93;;;17.37;;
7330;SDS011;3706;49.198;7.064;2024-02-28T12:52:09;24.03;;;18.20;;
7330;SDS011;3706;49.198;7.064;2024-02-28T12:54:37;22.30;;;17.50;;
7330;SDS011;3706;49.198;7.064;2024-02-28T12:57:04;26.63;;;19.27;;
7330;SDS011;3706;49.198;7.064;2024-02-28T12:59:31;23.63;;;18.37;;
7330;SDS011;3706;49.198;7.064;2024-02-28T13:01:59;23.87;;;17.57;;
7330;SDS011;3706;49.198;7.064;2024-02-28T13:04:26;22.10;;;17.17;;
7330;SDS011;3706;49.198;7.064;2024-02-28T13:10:50;21.27;;;16.37;;
7330;SDS011;3706;49.198;7.064;2024-02-28T13:13:20;23.90;;;17.10;;
7330;SDS011;3706;49.198;7.064;2024-02-28T13:15:47;23.37;;;16.67;;
7330;SDS011;3706;49.198;7.064;2024-02-28T13:18:14;25.27;;;18.17;;
7330;SDS011;3706;49.198;7.064;2024-02-28T13:20:41;22.80;;;17.10;;
7330;SDS011;3706;49.198;7.064;2024-02-28T13:23:08;24.20;;;18.03;;
7330;SDS011;3706;49.198;7.064;2024-02-28T13:25:35;23.27;;;17.17;;
7330;SDS011;3706;49.198;7.064;2024-02-28T13:28:04;21.53;;;17.03;;
7330;SDS011;3706;49.198;7.064;2024-02-28T13:30:31;20.13;;;14.90;;
7330;SDS011;3706;49.198;7.064;2024-02-28T13:33:00;20.00;;;16.00;;
7330;SDS011;3706;49.198;7.064;2024-02-28T13:35:27;21.60;;;15.80;;
7330;SDS011;3706;49.198;7.064;2024-02-28T13:41:27;23.17;;;16.47;;
7330;SDS011;3706;49.198;7.064;2024-02-28T13:43:55;21.37;;;15.77;;
7330;SDS011;3706;49.198;7.064;2024-02-28T13:46:22;19.57;;;14.53;;
7330;SDS011;3706;49.198;7.064;2024-02-28T13:48:49;19.67;;;14.03;;
7330;SDS011;3706;49.198;7.064;2024-02-28T13:51:16;22.00;;;16.17;;
7330;SDS011;3706;49.198;7.064;2024-02-28T13:53:43;20.97;;;15.03;;
7330;SDS011;3706;49.198;7.064;2024-02-28T13:56:10;20.87;;;14.27;;
7330;SDS011;3706;49.198;7.064;2024-02-28T13:58:37;20.10;;;13.57;;
7330;SDS011;3706;49.198;7.064;2024-02-28T14:01:06;20.90;;;15.13;;
7330;SDS011;3706;49.198;7.064;2024-02-28T14:03:33;21.23;;;14.37;;
7330;SDS011;3706;49.198;7.064;2024-02-28T14:06:00;21.43;;;15.40;;
7330;SDS011;3706;49.198;7.064;2024-02-28T14:08:27;20.83;;;14.70;;
7330;SDS011;3706;49.198;7.064;2024-02-28T14:10:54;23.37;;;14.20;;
7330;SDS011;3706;49.198;7.064;2024-02-28T14:13:21;22.80;;;15.30;;
7330;SDS011;3706;49.198;7.064;2024-02-28T14:15:48;22.27;;;14.60;;
7330;SDS011;3706;49.198;7.064;2024-02-28T14:18:17;23.73;;;16.00;;
7330;SDS011;3706;49.198;7.064;2024-02-28T14:20:45;23.57;;;16.30;;
7330;SDS011;3706;49.198;7.064;2024-02-28T14:23:12;24.70;;;16.67;;
7330;SDS011;3706;49.198;7.064;2024-02-28T14:25:38;21.93;;;14.67;;
7330;SDS011;3706;49.198;7.064;2024-02-28T14:28:06;21.63;;;13.93;;
7330;SDS011;3706;49.198;7.064;2024-02-28T14:30:33;23.37;;;14.50;;
7330;SDS011;3706;49.198;7.064;2024-02-28T14:33:00;20.57;;;14.17;;
7330;SDS011;3706;49.198;7.064;2024-02-28T14:35:29;19.63;;;12.73;;
7330;SDS011;3706;49.198;7.064;2024-02-28T14:37:56;20.50;;;14.10;;
7330;SDS011;3706;49.198;7.064;2024-02-28T14:40:23;17.80;;;11.93;;
7330;SDS011;3706;49.198;7.064;2024-02-28T14:42:51;22.17;;;13.40;;
7330;SDS011;3706;49.198;7.064;2024-02-28T14:45:18;19.50;;;12.87;;
7330;SDS011;3706;49.198;7.064;2024-02-28T14:47:45;24.80;;;15.67;;
7330;SDS011;3706;49.198;7.064;2024-02-28T14:50:12;23.43;;;15.23;;
7330;SDS011;3706;49.198;7.064;2024-02-28T14:52:40;23.17;;;14.67;;
7330;SDS011;3706;49.198;7.064;2024-02-28T14:55:08;25.53;;;15.93;;
7330;SDS011;3706;49.198;7.064;2024-02-28T14:57:36;16.53;;;12.13;;
7330;SDS011;3706;49.198;7.064;2024-02-28T15:00:06;18.20;;;12.07;;
7330;SDS011;3706;49.198;7.064;2024-02-28T15:02:39;16.87;;;11.83;;
7330;SDS011;3706;49.198;7.064;2024-02-28T15:05:06;20.20;;;13.03;;
7330;SDS011;3706;49.198;7.064;2024-02-28T15:07:34;17.33;;;11.80;;
7330;SDS011;3706;49.198;7.064;2024-02-28T15:10:03;22.80;;;13.77;;
7330;SDS011;3706;49.198;7.064;2024-02-28T15:12:32;18.10;;;11.80;;
7330;SDS011;3706;49.198;7.064;2024-02-28T15:15:00;22.67;;;14.10;;
7330;SDS011;3706;49.198;7.064;2024-02-28T15:17:28;17.67;;;11.37;;